Saint John's, Newfoundland and Labrador

8:12 AM NST on December 27, 2014 (GMT -0330)
St. John's International | Change Station
CLOSE
Current Station
Airport
Location: St. John's,
Elevation: 459 ft
Nearby Weather Stations

Elev 459 ft 47.62 °N, 52.74 °W | Updated 42 minutes ago

Overcast
Overcast
34 °F
Feels Like 26 °F
N
10
Wind Variable Wind from WSW

Today
High -- | Low -- °F
--% Chance of Precip.
Yesterday
High -- | Low -- °F
Precip. -- in
7:48 AM 4:15 PM
Waxing Crescent, 35% visible
Pressure 29.66 in
Visibility 15.0 miles
Clouds Overcast 3900 ft
Windchill 26 °F
Dew Point 28 °F
Humidity 81%
Rainfall 0.00 in
Snow Depth Not available.
UV 0 out of 12
Pollen Not available.
Air Quality Not available.
Flu Activity Not available.
METAR CYYT 271100Z 24009KT 15SM OVC039 01/M02 A2964 RMK SC8 SLP043

More Conditions Fewer Conditions

Pressure 29.66 in
Visibility 15.0 miles
Clouds Overcast 3900 ft
Windchill 26 °F
Dew Point 28 °F
Humidity 81%
Rainfall 0.00 in
Snow Depth Not available.
UV 0 out of 12
Pollen Not available.
Air Quality Not available.
Flu Activity Not available.
METAR CYYT 271100Z 24009KT 15SM OVC039 01/M02 A2964 RMK SC8 SLP043

More Conditions Fewer Conditions

10-Day Weather Forecast

Almanac

Astronomy

Dec. 27, 2014 Rise Set
Actual Time
Civil Twilight
Nautical Twilight
Astronomical Twilight
Moon
Length of Visible Light
Length of Day
Tomorrow will be .
, % of the Moon is Illuminated

Today's Extremes

Country Highs Country Lows

Community

WunderPhotos

Upload Photos

1,780,885 photos uploaded!

WunderBlogs® & News

Nearby

Air Quality

  Air Quality AQ Index Pollutant
Not available.

Snow Depth

Station Depth Elevation

Earthquake Activity

City Distance Mag. Time & Date
Minimum magnitude displayed is 2.5.

Coastal Water Temperatures

Place Temperature

Nearby Weather Stations